Time;durP1;ratioP1;P1;durP2;ratioP2;P2;SDS_P1;SDS_P2;PMS_P1;PMS_P2;Temp;Humidity;BMP_temperature;BMP_pressure;BME280_temperature;BME280_humidity;BME280_pressure;Samples;Min_cycle;Max_cycle;Signal;HPM_P1;HPM_P2
2023/11/03 00:02:08;;;;;;;0.20;0.20;;;9.60;99.90;;;;;;4995716;28;20187;-90
2023/11/03 00:04:37;;;;;;;0.20;0.20;;;9.60;99.90;;;;;;5012049;28;20228;-90
2023/11/03 00:07:06;;;;;;;0.23;0.23;;;9.60;99.90;;;;;;5028067;28;20683;-92
2023/11/03 00:09:33;;;;;;;0.20;0.20;;;9.60;99.90;;;;;;4996063;28;20218;-90
2023/11/03 00:12:03;;;;;;;0.43;0.43;;;9.70;99.90;;;;;;5011832;28;20211;-90
2023/11/03 00:14:30;;;;;;;0.13;0.13;;;9.70;99.90;;;;;;5044318;28;20198;-91
2023/11/03 00:16:57;;;;;;;0.90;0.90;;;9.70;99.90;;;;;;4995659;28;20214;-91
2023/11/03 00:19:27;;;;;;;0.40;0.40;;;9.70;99.90;;;;;;5027948;28;20695;-92
2023/11/03 00:21:54;;;;;;;0.60;0.60;;;9.70;99.90;;;;;;4994966;28;20207;-90
2023/11/03 00:24:23;;;;;;;1.67;0.57;;;9.70;99.90;;;;;;5011015;28;20312;-91
2023/11/03 00:26:49;;;;;;;0.20;0.20;;;9.70;99.90;;;;;;5027820;28;20796;-92
2023/11/03 00:29:15;;;;;;;0.43;0.43;;;9.70;99.90;;;;;;5020965;28;20252;-93
2023/11/03 00:31:45;;;;;;;1.30;0.47;;;9.70;99.90;;;;;;4987602;28;20211;-92
2023/11/03 00:34:15;;;;;;;0.30;0.30;;;9.70;99.90;;;;;;5019724;28;20222;-91
2023/11/03 00:36:42;;;;;;;0.13;0.13;;;9.70;99.90;;;;;;4985650;28;20230;-92
2023/11/03 00:39:12;;;;;;;0.47;0.47;;;9.70;99.90;;;;;;5019113;28;20211;-92
2023/11/03 00:41:42;;;;;;;0.50;0.50;;;9.80;99.90;;;;;;5004300;28;20214;-93
2023/11/03 00:44:09;;;;;;;0.53;0.53;;;9.80;99.90;;;;;;5023357;28;20192;-93
2023/11/03 00:46:35;;;;;;;0.70;0.70;;;9.80;99.90;;;;;;4986923;28;20210;-92
2023/11/03 00:49:02;;;;;;;0.90;0.43;;;9.80;99.90;;;;;;5016059;28;20246;-92
2023/11/03 00:51:28;;;;;;;0.50;0.50;;;9.90;99.90;;;;;;4987123;28;20253;-93
2023/11/03 00:53:54;;;;;;;1.80;0.97;;;9.90;99.90;;;;;;4988691;28;20218;-93
2023/11/03 00:56:20;;;;;;;0.30;0.30;;;9.90;99.90;;;;;;4988516;28;20248;-92
2023/11/03 00:58:46;;;;;;;1.03;0.80;;;9.90;99.90;;;;;;4986653;28;20183;-92
2023/11/03 01:01:13;;;;;;;0.90;0.90;;;9.90;99.90;;;;;;5018812;28;20281;-91
2023/11/03 01:03:39;;;;;;;0.30;0.30;;;9.90;99.90;;;;;;5011696;28;20218;-91
2023/11/03 01:06:07;;;;;;;1.97;0.63;;;10.00;99.90;;;;;;5019557;28;20214;-91
2023/11/03 01:08:34;;;;;;;1.83;0.73;;;10.00;99.90;;;;;;5018752;28;20770;-91
2023/11/03 01:11:02;;;;;;;0.50;0.50;;;10.00;99.90;;;;;;5001311;28;20181;-91
2023/11/03 01:13:28;;;;;;;0.30;0.30;;;10.00;99.90;;;;;;5020804;28;20769;-92
2023/11/03 01:15:54;;;;;;;0.70;0.70;;;10.00;99.90;;;;;;5011523;28;20317;-93
2023/11/03 01:18:20;;;;;;;2.23;0.97;;;10.00;99.90;;;;;;5017056;28;20301;-91
2023/11/03 01:20:51;;;;;;;0.33;0.33;;;10.00;99.90;;;;;;4988761;28;20300;-91
2023/11/03 01:23:18;;;;;;;1.20;0.60;;;10.00;99.90;;;;;;5019172;28;20226;-92
2023/11/03 01:25:45;;;;;;;0.50;0.50;;;10.00;99.90;;;;;;5021037;28;20201;-91
2023/11/03 01:28:13;;;;;;;0.20;0.20;;;10.00;99.90;;;;;;4990112;28;20230;-93
2023/11/03 01:30:42;;;;;;;0.87;0.53;;;10.00;99.90;;;;;;5008214;28;20261;-90
2023/11/03 01:33:08;;;;;;;0.20;0.20;;;10.10;99.90;;;;;;5013698;28;20215;-92
2023/11/03 01:35:36;;;;;;;0.50;0.50;;;10.00;99.90;;;;;;4990887;28;20293;-91
2023/11/03 01:38:04;;;;;;;0.37;0.37;;;10.10;99.90;;;;;;5010235;28;20195;-91
2023/11/03 01:40:30;;;;;;;0.40;0.40;;;10.10;99.90;;;;;;4995982;28;20225;-92
2023/11/03 01:42:56;;;;;;;1.13;0.40;;;10.10;99.90;;;;;;5011317;28;20245;-91
2023/11/03 01:45:22;;;;;;;1.17;1.07;;;10.10;99.90;;;;;;4986409;28;20214;-92
2023/11/03 01:47:48;;;;;;;0.40;0.40;;;10.10;99.90;;;;;;4994538;28;20554;-92
2023/11/03 01:50:15;;;;;;;0.20;0.20;;;10.20;99.90;;;;;;4996655;28;20193;-92
2023/11/03 01:52:43;;;;;;;0.33;0.33;;;10.20;99.90;;;;;;5025524;28;20709;-92
2023/11/03 01:55:11;;;;;;;0.27;0.27;;;10.20;99.90;;;;;;5012537;28;20218;-91
2023/11/03 01:57:39;;;;;;;0.30;0.30;;;10.20;99.90;;;;;;5007888;28;20245;-91
2023/11/03 02:00:07;;;;;;;0.50;0.33;;;10.20;99.90;;;;;;5026395;28;20574;-92
2023/11/03 02:02:34;;;;;;;0.47;0.47;;;10.20;99.90;;;;;;5011633;28;20186;-91
2023/11/03 02:05:02;;;;;;;0.57;0.57;;;10.30;99.90;;;;;;5016231;28;20693;-92
2023/11/03 02:07:27;;;;;;;0.33;0.30;;;10.20;99.90;;;;;;5013952;28;20214;-90
2023/11/03 02:09:53;;;;;;;0.40;0.40;;;10.20;99.90;;;;;;4997614;28;20214;-91
2023/11/03 02:12:19;;;;;;;2.07;0.93;;;10.30;99.90;;;;;;4999002;28;20649;-89
2023/11/03 02:14:45;;;;;;;0.40;0.40;;;10.30;99.90;;;;;;4997768;28;20222;-90
2023/11/03 02:17:11;;;;;;;0.30;0.30;;;10.30;99.90;;;;;;5016556;28;20241;-91
2023/11/03 02:19:37;;;;;;;0.40;0.40;;;10.20;99.90;;;;;;5016562;28;20253;-92
2023/11/03 02:22:03;;;;;;;0.70;0.70;;;10.20;99.90;;;;;;5014454;28;20260;-92
2023/11/03 02:24:29;;;;;;;2.00;1.90;;;10.20;99.90;;;;;;4999206;28;20215;-93
2023/11/03 02:26:55;;;;;;;9.63;0.70;;;10.20;99.90;;;;;;4998792;28;20210;-92
2023/11/03 02:29:21;;;;;;;10.73;0.97;;;10.20;99.90;;;;;;4999651;28;20198;-91
2023/11/03 02:31:47;;;;;;;0.57;0.57;;;10.20;99.90;;;;;;5024064;28;20669;-92
2023/11/03 02:34:13;;;;;;;5.97;0.90;;;10.20;99.90;;;;;;5048406;28;20388;-91
2023/11/03 02:36:39;;;;;;;0.63;0.30;;;10.30;99.90;;;;;;4998897;28;20290;-91
2023/11/03 02:39:05;;;;;;;0.33;0.33;;;10.30;99.90;;;;;;5032566;28;20220;-91
2023/11/03 02:41:30;;;;;;;2.77;0.53;;;10.30;99.90;;;;;;5032394;28;20193;-92
2023/11/03 02:43:56;;;;;;;0.47;0.47;;;10.30;99.90;;;;;;4999474;28;20195;-91
2023/11/03 02:46:23;;;;;;;0.40;0.40;;;10.30;99.90;;;;;;4998590;28;20211;-91
2023/11/03 02:48:50;;;;;;;1.40;0.40;;;10.30;99.90;;;;;;4999108;28;20210;-91
2023/11/03 02:51:15;;;;;;;2.93;2.57;;;10.30;99.90;;;;;;5016000;28;20228;-90
2023/11/03 02:53:41;;;;;;;0.20;0.20;;;10.30;99.90;;;;;;5014582;28;20209;-91
2023/11/03 02:56:07;;;;;;;0.80;0.80;;;10.30;99.90;;;;;;5000021;28;20202;-92
2023/11/03 02:58:36;;;;;;;0.23;0.23;;;10.30;99.90;;;;;;4998601;28;20206;-91
2023/11/03 03:01:02;;;;;;;0.97;0.40;;;10.30;99.90;;;;;;5029189;28;20313;-92
2023/11/03 03:03:28;;;;;;;2.73;0.93;;;10.40;99.90;;;;;;5030945;28;20316;-93
2023/11/03 03:05:54;;;;;;;0.23;0.23;;;10.40;99.90;;;;;;4998847;28;20292;-92
2023/11/03 03:08:20;;;;;;;0.43;0.43;;;10.40;99.90;;;;;;4999164;28;20182;-91
2023/11/03 03:10:46;;;;;;;0.13;0.13;;;10.40;99.90;;;;;;5015454;28;21361;-93
2023/11/03 03:13:12;;;;;;;0.37;0.37;;;10.40;99.90;;;;;;4998350;28;20312;-93
2023/11/03 03:15:37;;;;;;;0.23;0.23;;;10.50;99.90;;;;;;5014066;28;20254;-92
2023/11/03 03:18:04;;;;;;;0.40;0.40;;;10.50;99.90;;;;;;5023490;28;20206;-91
2023/11/03 03:20:30;;;;;;;0.10;0.10;;;10.50;99.90;;;;;;5038280;28;20182;-92
2023/11/03 03:22:56;;;;;;;0.23;0.23;;;10.50;99.90;;;;;;5015293;28;20188;-92
2023/11/03 03:25:22;;;;;;;0.47;0.47;;;10.50;99.90;;;;;;4998792;28;20223;-92
2023/11/03 03:27:48;;;;;;;0.83;0.53;;;10.50;99.90;;;;;;5040709;28;20690;-92
2023/11/03 03:30:14;;;;;;;0.30;0.30;;;10.50;99.90;;;;;;5015304;28;20225;-92
2023/11/03 03:32:40;;;;;;;0.20;0.20;;;10.50;99.90;;;;;;4997901;28;20221;-92
2023/11/03 03:35:07;;;;;;;0.20;0.20;;;10.50;99.90;;;;;;5015628;28;20929;-93
2023/11/03 03:37:35;;;;;;;0.70;0.43;;;10.50;99.90;;;;;;4998068;28;20306;-92
2023/11/03 03:40:00;;;;;;;0.17;0.17;;;10.50;99.90;;;;;;5016014;28;20296;-93
2023/11/03 03:42:27;;;;;;;1.23;0.50;;;10.50;99.90;;;;;;4999815;28;20310;-93
2023/11/03 03:44:53;;;;;;;4.53;0.60;;;10.50;99.90;;;;;;5045019;28;20562;-92
2023/11/03 03:47:19;;;;;;;0.93;0.50;;;10.50;99.90;;;;;;5015248;28;20281;-93
2023/11/03 03:49:45;;;;;;;0.40;0.40;;;10.50;99.90;;;;;;5015926;28;20201;-93
2023/11/03 03:52:11;;;;;;;0.33;0.33;;;10.60;99.90;;;;;;4997604;28;20218;-93
2023/11/03 03:54:37;;;;;;;0.10;0.10;;;10.60;99.90;;;;;;5014866;28;20586;-93
2023/11/03 03:57:02;;;;;;;0.40;0.40;;;10.60;99.90;;;;;;4998895;28;20312;-93
2023/11/03 03:59:29;;;;;;;0.77;0.77;;;10.60;99.90;;;;;;4999249;28;20285;-93
2023/11/03 04:01:55;;;;;;;0.27;0.27;;;10.60;99.90;;;;;;4998413;28;20207;-94
2023/11/03 04:04:21;;;;;;;0.30;0.30;;;10.60;99.90;;;;;;5013296;28;20219;-93
2023/11/03 04:06:47;;;;;;;0.20;0.20;;;10.60;99.90;;;;;;5012783;28;20225;-95
2023/11/03 04:09:13;;;;;;;0.27;0.27;;;10.60;99.90;;;;;;4998700;28;20270;-92
2023/11/03 04:11:39;;;;;;;0.43;0.43;;;10.60;99.90;;;;;;5048857;28;20245;-94
2023/11/03 04:14:06;;;;;;;0.20;0.20;;;10.60;99.90;;;;;;5046319;28;20182;-93
2023/11/03 04:16:33;;;;;;;0.43;0.43;;;10.70;99.90;;;;;;4998813;28;20448;-95
2023/11/03 04:18:59;;;;;;;0.30;0.30;;;10.70;99.90;;;;;;5014651;28;20213;-93
2023/11/03 04:21:25;;;;;;;0.77;0.77;;;10.70;99.90;;;;;;5019865;28;20218;-92
2023/11/03 04:23:51;;;;;;;0.30;0.30;;;10.70;99.90;;;;;;4997497;28;20213;-92
2023/11/03 04:26:16;;;;;;;0.77;0.77;;;10.70;99.90;;;;;;4997138;28;20194;-93
2023/11/03 04:28:42;;;;;;;0.20;0.20;;;10.70;99.90;;;;;;5030592;28;20246;-92
2023/11/03 04:31:09;;;;;;;0.23;0.23;;;10.80;99.90;;;;;;5030509;28;20249;-92
2023/11/03 04:33:35;;;;;;;0.40;0.40;;;10.80;99.90;;;;;;5013953;28;20211;-95
2023/11/03 04:36:01;;;;;;;0.30;0.30;;;10.80;99.90;;;;;;5031025;28;20792;-95
2023/11/03 04:38:26;;;;;;;1.03;0.93;;;10.80;99.90;;;;;;5030046;28;20194;-92
2023/11/03 04:40:52;;;;;;;0.47;0.47;;;10.80;99.90;;;;;;4999203;28;20220;-95
2023/11/03 04:43:20;;;;;;;0.40;0.40;;;10.80;99.90;;;;;;4997163;28;20214;-95
2023/11/03 04:45:46;;;;;;;0.20;0.20;;;10.80;99.90;;;;;;4997022;28;20216;-92
2023/11/03 04:48:12;;;;;;;0.30;0.30;;;10.90;99.90;;;;;;4996776;28;20313;-93
2023/11/03 04:50:38;;;;;;;0.40;0.40;;;10.90;99.90;;;;;;4997715;28;20222;-93
2023/11/03 04:53:04;;;;;;;0.20;0.20;;;10.90;99.90;;;;;;4997506;28;20177;-95
2023/11/03 04:55:30;;;;;;;0.13;0.13;;;10.90;99.90;;;;;;5030261;28;20218;-93
2023/11/03 04:57:57;;;;;;;0.50;0.50;;;10.90;99.90;;;;;;5012834;28;20229;-94
2023/11/03 05:00:23;;;;;;;0.77;0.77;;;10.90;99.90;;;;;;5034671;28;20222;-94
2023/11/03 05:02:52;;;;;;;0.10;0.10;;;11.10;99.90;;;;;;5014603;28;20226;-93
2023/11/03 05:05:18;;;;;;;0.20;0.20;;;11.00;99.90;;;;;;4998434;28;20204;-92
2023/11/03 05:07:44;;;;;;;0.37;0.37;;;11.10;99.90;;;;;;5014667;28;20277;-94
2023/11/03 05:10:10;;;;;;;0.63;0.63;;;11.10;99.90;;;;;;4996629;28;20329;-92
2023/11/03 05:12:36;;;;;;;0.47;0.47;;;11.20;99.90;;;;;;5012946;28;20725;-92
2023/11/03 05:15:05;;;;;;;1.63;0.60;;;11.20;99.90;;;;;;5011300;28;20218;-93
2023/11/03 05:17:31;;;;;;;0.20;0.20;;;11.30;99.90;;;;;;4996617;28;20221;-95
2023/11/03 05:19:56;;;;;;;0.47;0.47;;;11.30;99.90;;;;;;4996971;28;20197;-93
2023/11/03 05:22:22;;;;;;;6.10;1.33;;;11.30;99.90;;;;;;5011556;28;20222;-93
2023/11/03 05:24:48;;;;;;;0.20;0.20;;;11.30;99.90;;;;;;4996147;28;20223;-92
2023/11/03 05:27:14;;;;;;;0.73;0.70;;;11.30;99.90;;;;;;4997493;28;21091;-93
2023/11/03 05:29:40;;;;;;;0.40;0.40;;;11.30;99.90;;;;;;4995377;28;20210;-92
2023/11/03 05:32:06;;;;;;;0.20;0.20;;;11.40;99.90;;;;;;4996594;28;20623;-91
2023/11/03 05:34:34;;;;;;;0.23;0.23;;;11.40;99.90;;;;;;4996000;28;20280;-91
2023/11/03 05:37:00;;;;;;;0.30;0.30;;;11.40;99.90;;;;;;4996837;28;20214;-91
2023/11/03 05:39:26;;;;;;;0.50;0.50;;;11.40;99.90;;;;;;5033136;28;20869;-91
2023/11/03 05:41:52;;;;;;;0.27;0.27;;;11.40;99.90;;;;;;5000135;28;20269;-91
2023/11/03 05:44:18;;;;;;;0.67;0.67;;;11.40;99.90;;;;;;5033039;28;20223;-92
2023/11/03 05:46:44;;;;;;;2.57;0.93;;;11.30;99.90;;;;;;5016152;28;20248;-92
2023/11/03 05:49:10;;;;;;;0.40;0.40;;;11.30;99.90;;;;;;5015869;28;20206;-91
2023/11/03 05:51:35;;;;;;;0.47;0.40;;;11.40;99.90;;;;;;5015231;28;20221;-91
2023/11/03 05:54:01;;;;;;;0.10;0.10;;;11.40;99.90;;;;;;5015450;28;20753;-91
2023/11/03 05:56:27;;;;;;;2.87;1.33;;;11.40;99.90;;;;;;5033354;28;20214;-91
2023/11/03 05:58:53;;;;;;;0.87;0.87;;;11.40;99.90;;;;;;5033417;28;20516;-91
2023/11/03 06:01:19;;;;;;;0.93;0.40;;;11.40;99.90;;;;;;5032674;28;20252;-91
2023/11/03 06:03:45;;;;;;;0.40;0.40;;;11.40;99.90;;;;;;4999645;28;20237;-90
2023/11/03 06:06:11;;;;;;;0.47;0.47;;;11.40;99.90;;;;;;5032084;28;20250;-91
2023/11/03 06:08:37;;;;;;;1.93;0.40;;;11.40;99.90;;;;;;4999200;28;20214;-91
2023/11/03 06:11:04;;;;;;;0.43;0.23;;;11.40;99.90;;;;;;4999233;28;20181;-92
2023/11/03 06:13:30;;;;;;;0.30;0.20;;;11.40;99.90;;;;;;5013839;28;20227;-92
2023/11/03 06:15:56;;;;;;;2.90;0.50;;;11.40;99.90;;;;;;5014513;28;20778;-91
2023/11/03 06:18:22;;;;;;;0.60;0.47;;;11.40;99.90;;;;;;5016388;28;20459;-92
2023/11/03 06:20:48;;;;;;;0.20;0.20;;;11.40;99.90;;;;;;5049138;28;20205;-92
2023/11/03 06:23:14;;;;;;;0.40;0.40;;;11.40;99.90;;;;;;5015956;28;20193;-91
2023/11/03 06:25:39;;;;;;;1.30;1.03;;;11.40;99.90;;;;;;5016545;28;20261;-90
2023/11/03 06:28:07;;;;;;;0.43;0.43;;;11.40;99.90;;;;;;4999638;28;20316;-91
2023/11/03 06:30:52;;;;;;;0.37;0.37;;;11.50;99.90;;;;;;5029997;28;20222;-90
2023/11/03 06:33:18;;;;;;;0.37;0.33;;;11.50;99.90;;;;;;5014548;28;20367;-91
2023/11/03 06:35:44;;;;;;;2.10;0.70;;;11.60;99.90;;;;;;4999395;28;20694;-92
2023/11/03 06:38:10;;;;;;;0.40;0.40;;;11.60;99.90;;;;;;5032914;28;20182;-89
2023/11/03 06:40:35;;;;;;;0.60;0.60;;;11.60;99.90;;;;;;5030540;28;20231;-91
2023/11/03 06:43:01;;;;;;;0.20;0.20;;;11.60;99.90;;;;;;5013671;28;20210;-91
2023/11/03 06:45:27;;;;;;;6.80;0.67;;;11.50;99.90;;;;;;5012683;28;20221;-90
2023/11/03 06:47:52;;;;;;;0.80;0.80;;;11.60;99.90;;;;;;5013860;28;20222;-91
2023/11/03 06:50:18;;;;;;;2.53;1.47;;;11.60;99.90;;;;;;4996598;28;20285;-92
2023/11/03 06:52:44;;;;;;;1.20;0.80;;;11.60;99.90;;;;;;5016798;28;20194;-91
2023/11/03 06:55:11;;;;;;;0.30;0.30;;;11.60;99.90;;;;;;5029728;28;20232;-92
2023/11/03 06:57:38;;;;;;;0.57;0.30;;;11.70;99.90;;;;;;5012742;28;20780;-91
2023/11/03 07:00:06;;;;;;;1.13;1.07;;;11.70;99.90;;;;;;4998082;28;20709;-92
2023/11/03 07:02:33;;;;;;;0.10;0.10;;;11.70;99.90;;;;;;5013933;28;20325;-93
2023/11/03 07:05:00;;;;;;;0.20;0.20;;;11.70;99.90;;;;;;5000766;28;20273;-92
2023/11/03 07:07:28;;;;;;;1.43;0.93;;;11.80;99.90;;;;;;4998797;28;20693;-94
2023/11/03 07:09:55;;;;;;;0.93;0.93;;;11.80;99.90;;;;;;5029773;28;20241;-90
2023/11/03 07:12:21;;;;;;;0.43;0.43;;;11.80;99.90;;;;;;5000300;28;20287;-92
2023/11/03 07:14:47;;;;;;;0.23;0.23;;;11.80;99.90;;;;;;5014535;28;20600;-90
2023/11/03 07:17:13;;;;;;;0.33;0.30;;;11.80;99.90;;;;;;5030011;28;20738;-91
2023/11/03 07:19:40;;;;;;;1.03;0.53;;;11.90;99.90;;;;;;5012436;28;20218;-91
2023/11/03 07:22:06;;;;;;;0.60;0.60;;;11.90;99.90;;;;;;4997352;28;20206;-90
2023/11/03 07:24:31;;;;;;;0.17;0.17;;;12.00;99.90;;;;;;4996061;28;20210;-93
2023/11/03 07:26:58;;;;;;;12.33;0.30;;;12.00;99.90;;;;;;5028301;28;20295;-93
2023/11/03 07:29:24;;;;;;;1.90;0.87;;;12.00;99.90;;;;;;4972397;28;20191;-96
2023/11/03 07:31:50;;;;;;;0.57;0.57;;;12.00;99.90;;;;;;5003130;28;20182;-91
2023/11/03 07:34:18;;;;;;;1.13;0.97;;;12.00;99.90;;;;;;5004094;28;20210;-90
2023/11/03 07:36:45;;;;;;;0.20;0.20;;;12.10;99.90;;;;;;4977253;28;20701;-89
2023/11/03 07:39:11;;;;;;;0.30;0.30;;;12.10;99.90;;;;;;4975770;28;20256;-90
2023/11/03 07:41:37;;;;;;;0.30;0.30;;;12.10;99.90;;;;;;4976616;28;20179;-89
2023/11/03 07:44:06;;;;;;;2.73;0.93;;;12.10;99.90;;;;;;5008198;28;20645;-90
2023/11/03 07:46:33;;;;;;;0.40;0.40;;;12.20;99.90;;;;;;4985821;28;20236;-90
2023/11/03 07:49:04;;;;;;;0.43;0.43;;;12.20;99.90;;;;;;5008540;28;20222;-90
2023/11/03 07:51:30;;;;;;;0.70;0.60;;;12.20;99.90;;;;;;4986111;28;20219;-90
2023/11/03 07:53:56;;;;;;;2.27;1.27;;;12.20;99.90;;;;;;4980442;28;21191;-90
2023/11/03 07:56:22;;;;;;;1.37;1.27;;;12.20;99.90;;;;;;4978902;28;20206;-90
2023/11/03 07:58:49;;;;;;;0.27;0.23;;;12.20;99.90;;;;;;5004487;28;20192;-90
2023/11/03 08:01:15;;;;;;;0.20;0.20;;;12.20;99.90;;;;;;4982858;28;21012;-90
2023/11/03 08:03:42;;;;;;;0.40;0.40;;;12.20;99.90;;;;;;4996838;28;20215;-90
2023/11/03 08:06:08;;;;;;;0.40;0.30;;;12.20;99.90;;;;;;4986526;28;20217;-90
2023/11/03 08:08:34;;;;;;;2.30;0.50;;;12.30;99.90;;;;;;5007127;28;20179;-91
2023/11/03 08:11:02;;;;;;;1.53;1.17;;;12.30;99.90;;;;;;5008915;28;20183;-90
2023/11/03 08:13:29;;;;;;;0.60;0.60;;;12.40;99.90;;;;;;4991479;28;20329;-90
2023/11/03 08:15:55;;;;;;;0.43;0.43;;;12.40;99.90;;;;;;4972621;28;20249;-90
2023/11/03 08:18:21;;;;;;;0.80;0.80;;;12.40;99.90;;;;;;4991435;28;20226;-90
2023/11/03 08:20:47;;;;;;;6.23;0.43;;;12.50;99.90;;;;;;4992705;28;20241;-91
2023/11/03 08:23:16;;;;;;;7.33;2.33;;;12.50;99.90;;;;;;5009214;28;20191;-90
2023/11/03 08:25:43;;;;;;;10.77;0.73;;;12.50;99.90;;;;;;5008382;28;20225;-90
2023/11/03 08:28:10;;;;;;;0.67;0.60;;;12.40;99.90;;;;;;5031643;28;20284;-90
2023/11/03 08:30:40;;;;;;;6.60;1.37;;;12.50;99.90;;;;;;5026671;28;20221;-90
2023/11/03 08:33:09;;;;;;;0.40;0.40;;;12.40;99.90;;;;;;5026240;28;20868;-91
2023/11/03 08:35:35;;;;;;;2.13;0.97;;;12.50;99.90;;;;;;5026451;28;20194;-90
2023/11/03 08:38:03;;;;;;;1.40;1.00;;;12.50;99.90;;;;;;5027169;28;20651;-91
2023/11/03 08:40:30;;;;;;;3.43;0.40;;;12.50;99.90;;;;;;4994229;28;20214;-91
2023/11/03 08:42:56;;;;;;;2.10;0.80;;;12.50;99.90;;;;;;5010037;28;20203;-90
2023/11/03 08:45:23;;;;;;;3.83;1.23;;;12.50;99.90;;;;;;5007800;28;20233;-91
2023/11/03 08:47:50;;;;;;;0.20;0.20;;;12.40;99.90;;;;;;5006424;28;20226;-90
2023/11/03 08:50:17;;;;;;;0.47;0.20;;;12.40;99.90;;;;;;5037526;28;20201;-91
2023/11/03 08:52:50;;;;;;;0.87;0.67;;;12.40;99.90;;;;;;5036937;28;20288;-90
2023/11/03 08:55:16;;;;;;;0.30;0.30;;;12.50;99.90;;;;;;5024748;28;20214;-90
2023/11/03 08:57:42;;;;;;;0.73;0.50;;;12.50;99.90;;;;;;5006893;28;20237;-90
2023/11/03 09:00:11;;;;;;;0.77;0.70;;;12.70;99.90;;;;;;5042003;28;20431;-90
2023/11/03 09:02:44;;;;;;;2.20;0.50;;;12.80;99.90;;;;;;5027033;28;20246;-92
2023/11/03 09:05:11;;;;;;;0.20;0.20;;;12.80;99.90;;;;;;5027351;28;20186;-91
2023/11/03 09:07:38;;;;;;;0.70;0.70;;;12.90;99.90;;;;;;5009837;28;20590;-90
2023/11/03 09:10:06;;;;;;;0.53;0.53;;;12.80;99.90;;;;;;5010208;28;20301;-91
2023/11/03 09:12:32;;;;;;;1.50;0.97;;;12.80;99.90;;;;;;5011349;28;20224;-89
2023/11/03 09:14:58;;;;;;;0.30;0.30;;;12.80;99.90;;;;;;4997699;28;20222;-88
2023/11/03 09:17:24;;;;;;;1.07;0.30;;;12.80;99.90;;;;;;5029675;28;20214;-89
2023/11/03 09:19:50;;;;;;;1.13;0.30;;;12.80;99.90;;;;;;5028922;28;20183;-90
2023/11/03 09:22:19;;;;;;;3.43;1.33;;;12.90;99.90;;;;;;5024682;28;20283;-91
2023/11/03 09:24:45;;;;;;;2.00;0.90;;;12.90;99.90;;;;;;5009016;28;20589;-89
2023/11/03 09:27:12;;;;;;;2.90;0.57;;;12.80;99.90;;;;;;4993776;28;20234;-89
2023/11/03 09:29:37;;;;;;;0.50;0.50;;;12.80;99.90;;;;;;4978307;28;20253;-88
2023/11/03 09:32:03;;;;;;;11.80;0.93;;;12.80;99.90;;;;;;4994656;28;20179;-89
2023/11/03 09:34:30;;;;;;;3.30;0.50;;;12.90;99.90;;;;;;4985839;28;20211;-89
2023/11/03 09:37:00;;;;;;;0.80;0.80;;;12.90;99.90;;;;;;5009055;28;20203;-90
2023/11/03 09:39:26;;;;;;;0.17;0.17;;;12.90;99.90;;;;;;4995435;28;20301;-90
2023/11/03 09:42:16;;;;;;;9.17;1.93;;;12.90;99.90;;;;;;4996043;28;20294;-90
2023/11/03 09:44:42;;;;;;;1.80;1.13;;;12.90;99.90;;;;;;5011348;28;20214;-90
2023/11/03 09:47:11;;;;;;;2.83;0.77;;;13.00;99.90;;;;;;4994980;28;20187;-91
2023/11/03 09:49:37;;;;;;;0.57;0.10;;;12.90;99.90;;;;;;5012399;28;20222;-92
2023/11/03 09:52:06;;;;;;;3.20;0.57;;;12.90;99.90;;;;;;4995325;28;20222;-90
2023/11/03 09:54:35;;;;;;;1.60;0.47;;;12.90;99.90;;;;;;5011273;28;20203;-89
2023/11/03 09:57:08;;;;;;;0.80;0.80;;;12.90;99.90;;;;;;5011592;28;20725;-90
2023/11/03 09:59:39;;;;;;;0.93;0.93;;;12.90;99.90;;;;;;4989846;28;20668;-91
2023/11/03 10:02:09;;;;;;;0.40;0.40;;;13.00;99.90;;;;;;5010932;28;20179;-92
2023/11/03 10:04:42;;;;;;;0.27;0.27;;;13.00;99.90;;;;;;5010275;28;20210;-90
2023/11/03 10:07:11;;;;;;;1.90;1.80;;;13.00;99.90;;;;;;5009757;28;20301;-86
2023/11/03 10:09:39;;;;;;;1.73;1.07;;;13.10;99.90;;;;;;5011169;28;20281;-90
2023/11/03 10:12:17;;;;;;;0.30;0.23;;;13.20;99.90;;;;;;5010373;28;20198;-91
2023/11/03 10:14:46;;;;;;;2.50;0.73;;;13.20;99.90;;;;;;5010478;28;20211;-90
2023/11/03 10:17:14;;;;;;;2.87;1.00;;;13.40;99.90;;;;;;4993200;28;20302;-90
2023/11/03 10:19:41;;;;;;;1.80;1.37;;;13.50;99.90;;;;;;5009703;28;20683;-90
2023/11/03 10:22:08;;;;;;;0.93;0.90;;;13.50;99.90;;;;;;4994820;28;20234;-90
2023/11/03 10:24:36;;;;;;;0.73;0.73;;;13.60;99.90;;;;;;4991834;28;20710;-90
2023/11/03 10:27:02;;;;;;;0.60;0.53;;;13.50;99.90;;;;;;5003755;28;20203;-89
2023/11/03 10:29:29;;;;;;;14.50;0.97;;;13.40;99.90;;;;;;4998358;28;20464;-90
2023/11/03 10:31:55;;;;;;;0.40;0.40;;;13.40;99.90;;;;;;5030680;28;20245;-90
2023/11/03 10:34:22;;;;;;;4.00;0.30;;;13.50;99.90;;;;;;5014862;28;20615;-90
2023/11/03 10:36:49;;;;;;;0.53;0.40;;;13.60;99.90;;;;;;5045205;28;20284;-90
2023/11/03 10:39:18;;;;;;;0.47;0.47;;;13.60;99.90;;;;;;5014609;28;20226;-91
2023/11/03 10:41:45;;;;;;;2.27;0.60;;;13.60;99.90;;;;;;5013747;28;20214;-90
2023/11/03 10:44:20;;;;;;;5.90;1.13;;;13.50;99.90;;;;;;5048408;28;20281;-91
2023/11/03 10:46:52;;;;;;;0.20;0.20;;;13.40;99.90;;;;;;5046456;28;20222;-90
2023/11/03 10:49:35;;;;;;;3.73;0.57;;;13.30;99.90;;;;;;5047206;28;20222;-91
2023/11/03 10:52:13;;;;;;;0.43;0.40;;;13.20;99.90;;;;;;5029896;28;20202;-92
2023/11/03 10:54:57;;;;;;;0.30;0.30;;;13.40;99.90;;;;;;5039732;28;20222;-91
2023/11/03 10:57:23;;;;;;;6.80;0.93;;;13.50;99.90;;;;;;5029505;28;20227;-91
2023/11/03 11:00:10;;;;;;;0.63;0.63;;;13.50;99.90;;;;;;4997363;28;20761;-90
2023/11/03 11:03:00;;;;;;;0.17;0.17;;;13.60;99.90;;;;;;5046841;28;20646;-90
2023/11/03 11:05:42;;;;;;;1.60;0.70;;;13.70;99.90;;;;;;5046353;28;20190;-89
2023/11/03 11:08:10;;;;;;;8.10;0.37;;;13.70;99.90;;;;;;5046253;28;20219;-89
2023/11/03 11:10:38;;;;;;;2.83;0.70;;;13.70;99.90;;;;;;5021938;28;20206;-89
2023/11/03 11:13:09;;;;;;;1.17;0.43;;;13.80;99.90;;;;;;5030112;28;20343;-88
2023/11/03 11:15:37;;;;;;;2.10;1.90;;;13.90;99.90;;;;;;5036782;28;20206;-89
2023/11/03 11:18:14;;;;;;;0.10;0.10;;;14.10;99.90;;;;;;5016566;28;20700;-89
2023/11/03 11:20:49;;;;;;;0.83;0.20;;;14.00;99.90;;;;;;5031355;28;20257;-90
2023/11/03 11:23:17;;;;;;;0.27;0.27;;;13.80;99.90;;;;;;5030725;28;20186;-92
2023/11/03 11:25:47;;;;;;;2.67;0.30;;;13.80;99.90;;;;;;5028869;28;20210;-93
2023/11/03 11:28:45;;;;;;;1.40;0.83;;;13.70;99.90;;;;;;5027880;28;20242;-89
2023/11/03 11:31:27;;;;;;;1.17;0.90;;;13.70;99.90;;;;;;4997038;28;20221;-90
2023/11/03 11:34:10;;;;;;;0.40;0.40;;;13.60;99.90;;;;;;5031519;28;20214;-89
2023/11/03 11:36:39;;;;;;;3.13;0.40;;;13.40;99.90;;;;;;5030561;28;20234;-89
2023/11/03 11:39:13;;;;;;;0.93;0.93;;;13.40;99.90;;;;;;5014647;28;20229;-90
2023/11/03 11:42:00;;;;;;;1.50;0.90;;;13.30;99.90;;;;;;5031277;28;20220;-88
2023/11/03 11:44:29;;;;;;;1.33;0.77;;;13.20;99.90;;;;;;5046681;28;20190;-89
2023/11/03 11:47:01;;;;;;;0.23;0.23;;;13.10;99.90;;;;;;5021324;28;20269;-89
2023/11/03 11:49:31;;;;;;;0.40;0.40;;;13.10;99.90;;;;;;5046335;28;20241;-90
2023/11/03 11:52:01;;;;;;;1.20;0.70;;;13.10;99.90;;;;;;5013855;28;20219;-89
2023/11/03 11:54:27;;;;;;;0.40;0.40;;;13.10;99.90;;;;;;5029234;28;20210;-89
2023/11/03 11:56:53;;;;;;;4.77;0.63;;;13.10;99.90;;;;;;5029916;28;20248;-91
2023/11/03 11:59:21;;;;;;;3.03;0.53;;;13.00;99.90;;;;;;4997406;28;20194;-90
2023/11/03 12:01:48;;;;;;;0.20;0.20;;;13.00;99.90;;;;;;5029508;28;20185;-90
2023/11/03 12:04:15;;;;;;;1.50;1.20;;;13.10;99.90;;;;;;5012761;28;20331;-90
2023/11/03 12:06:42;;;;;;;0.83;0.60;;;13.20;99.90;;;;;;5013507;28;20206;-90
2023/11/03 12:09:09;;;;;;;1.50;0.33;;;13.20;99.90;;;;;;5021186;28;20218;-90
2023/11/03 12:11:37;;;;;;;1.70;1.57;;;13.40;99.90;;;;;;5029243;28;20265;-90
2023/11/03 12:14:03;;;;;;;0.93;0.93;;;13.50;99.90;;;;;;5030742;28;20223;-91
2023/11/03 12:16:29;;;;;;;14.63;1.37;;;13.90;99.90;;;;;;5012719;28;20224;-91
2023/11/03 12:18:55;;;;;;;0.50;0.47;;;13.80;99.90;;;;;;4996064;28;20667;-89
2023/11/03 12:21:25;;;;;;;3.40;0.90;;;13.90;99.90;;;;;;5013292;28;20734;-89
2023/11/03 12:23:55;;;;;;;0.13;0.13;;;14.00;99.90;;;;;;4996788;28;20198;-90
2023/11/03 12:26:21;;;;;;;1.23;1.13;;;14.10;99.90;;;;;;5028777;28;20250;-89
2023/11/03 12:28:47;;;;;;;0.30;0.30;;;14.20;99.90;;;;;;4997376;28;20231;-90
2023/11/03 12:31:13;;;;;;;0.20;0.20;;;14.40;99.90;;;;;;5012704;28;20228;-88
2023/11/03 12:33:39;;;;;;;0.70;0.70;;;14.20;99.90;;;;;;5011895;28;20305;-89
2023/11/03 12:36:06;;;;;;;2.10;1.20;;;14.10;99.90;;;;;;5013235;28;20762;-90
2023/11/03 12:38:42;;;;;;;0.77;0.43;;;14.00;99.90;;;;;;4996628;28;20186;-91
2023/11/03 12:41:15;;;;;;;1.13;1.13;;;13.90;99.90;;;;;;5013965;28;20271;-90
2023/11/03 12:43:48;;;;;;;1.20;0.87;;;13.90;99.90;;;;;;5044300;28;20213;-91
2023/11/03 12:46:13;;;;;;;0.93;0.53;;;13.80;99.90;;;;;;5045512;28;20221;-90
2023/11/03 12:48:39;;;;;;;1.60;0.83;;;13.70;99.90;;;;;;4995940;28;20214;-89
2023/11/03 12:51:07;;;;;;;5.13;0.40;;;13.60;99.90;;;;;;4997173;28;20234;-90